createdAt,value
2023-05-15T00:01:50.249Z,7.83
2023-05-15T00:06:53.385Z,7.74
2023-05-15T00:11:57.966Z,7.84
2023-05-15T00:17:01.265Z,7.70
2023-05-15T00:22:04.508Z,7.75
2023-05-15T00:27:09.213Z,7.69
2023-05-15T00:32:13.578Z,7.55
2023-05-15T00:37:16.826Z,7.19
2023-05-15T00:42:22.383Z,7.49
2023-05-15T00:47:27.996Z,7.50
2023-05-15T00:52:31.864Z,7.29
2023-05-15T00:57:36.605Z,7.38
2023-05-15T01:02:41.140Z,7.30
2023-05-15T01:07:50.548Z,7.12
2023-05-15T01:12:57.075Z,7.11
2023-05-15T01:18:00.420Z,7.05
2023-05-15T01:23:11.282Z,6.77
2023-05-15T01:28:20.981Z,6.94
2023-05-15T01:33:28.257Z,6.79
2023-05-15T01:38:36.493Z,6.77
2023-05-15T01:43:44.022Z,6.51
2023-05-15T01:48:47.544Z,6.64
2023-05-15T01:53:50.924Z,6.61
2023-05-15T01:59:00.237Z,6.60
2023-05-15T02:04:05.589Z,6.53
2023-05-15T02:09:09.205Z,6.43
2023-05-15T02:14:13.944Z,6.43
2023-05-15T02:19:17.132Z,6.35
2023-05-15T02:24:20.318Z,6.26
2023-05-15T02:29:35.873Z,6.06
2023-05-15T02:34:41.036Z,6.09
2023-05-15T02:39:46.097Z,6.08
2023-05-15T02:44:51.525Z,6.10
2023-05-15T02:49:54.648Z,6.04
2023-05-15T02:54:57.893Z,6.03
2023-05-15T03:00:05.283Z,5.99
2023-05-15T03:05:10.259Z,5.60
2023-05-15T03:10:13.482Z,5.86
2023-05-15T03:15:18.268Z,5.82
2023-05-15T03:20:21.539Z,5.81
2023-05-15T03:25:25.075Z,5.79
2023-05-15T03:30:29.779Z,5.77
2023-05-15T03:35:33.372Z,5.64
2023-05-15T03:40:36.546Z,5.63
2023-05-15T03:45:41.575Z,5.70
2023-05-15T03:50:45.988Z,5.81
2023-05-15T03:55:49.371Z,5.77
2023-05-15T04:00:54.641Z,5.81
2023-05-15T04:05:58.066Z,5.94
2023-05-15T04:11:01.488Z,6.03
2023-05-15T04:16:07.395Z,6.00
2023-05-15T04:21:10.745Z,5.89
2023-05-15T04:26:14.092Z,6.36
2023-05-15T04:31:19.461Z,6.49
2023-05-15T04:36:22.972Z,6.70
2023-05-15T04:41:26.763Z,6.99
2023-05-15T04:46:37.533Z,7.09
2023-05-15T04:51:41.580Z,7.39
2023-05-15T04:56:44.868Z,7.51
2023-05-15T05:01:49.747Z,7.49
2023-05-15T05:06:53.268Z,7.69
2023-05-15T05:11:56.476Z,8.13
2023-05-15T05:17:01.093Z,8.41
2023-05-15T05:22:06.027Z,8.70
2023-05-15T05:27:09.442Z,9.01
2023-05-15T05:32:14.127Z,9.45
2023-05-15T05:37:17.300Z,9.95
2023-05-15T05:42:20.511Z,10.96
2023-05-15T05:47:25.250Z,12.17
2023-05-15T05:52:29.379Z,11.91
2023-05-15T05:57:32.615Z,12.29
2023-05-15T06:02:37.539Z,12.26
2023-05-15T06:07:41.364Z,13.62
2023-05-15T06:12:44.632Z,14.64
2023-05-15T06:17:49.537Z,15.29
2023-05-15T06:22:52.871Z,16.62
2023-05-15T06:27:56.241Z,17.05
2023-05-15T06:33:01.108Z,17.46
2023-05-15T06:38:04.705Z,18.21
2023-05-15T06:43:08.010Z,19.40
2023-05-15T06:48:12.716Z,20.11
2023-05-15T06:53:17.707Z,20.58
2023-05-15T06:58:21.138Z,20.76
2023-05-15T07:03:25.966Z,20.71
2023-05-15T07:08:29.208Z,19.65
2023-05-15T07:13:32.469Z,18.80
2023-05-15T07:18:37.327Z,19.25
2023-05-15T07:23:40.642Z,19.27
2023-05-15T07:28:43.875Z,19.49
2023-05-15T07:33:48.487Z,19.47
2023-05-15T07:38:51.921Z,19.67
2023-05-15T07:43:55.155Z,19.24
2023-05-15T07:48:59.662Z,18.65
2023-05-15T07:54:04.384Z,19.00
2023-05-15T07:59:07.786Z,19.24
2023-05-15T08:04:13.177Z,19.89
2023-05-15T08:09:19.075Z,19.32
2023-05-15T08:14:22.405Z,19.16
2023-05-15T08:19:27.017Z,19.84
2023-05-15T08:24:30.640Z,19.63
2023-05-15T08:29:33.950Z,19.46
2023-05-15T08:34:38.728Z,19.15
2023-05-15T08:39:42.319Z,19.18
2023-05-15T08:44:45.666Z,18.96
2023-05-15T08:49:58.617Z,19.59
2023-05-15T08:55:02.279Z,18.85
2023-05-15T09:00:09.378Z,19.04
2023-05-15T09:05:14.960Z,20.44
2023-05-15T09:10:18.398Z,20.11
2023-05-15T09:15:25.369Z,20.79
2023-05-15T09:20:31.671Z,20.90
2023-05-15T09:25:37.723Z,19.74
2023-05-15T09:30:43.895Z,20.57
2023-05-15T09:35:48.470Z,21.02
2023-05-15T09:40:51.983Z,20.00
2023-05-15T09:45:55.850Z,19.97
2023-05-15T09:51:01.927Z,19.56
2023-05-15T09:56:05.322Z,20.55
2023-05-15T10:01:12.054Z,20.79
2023-05-15T10:06:21.326Z,20.03
2023-05-15T10:11:24.891Z,18.75
2023-05-15T10:16:29.678Z,20.32
2023-05-15T10:21:37.360Z,20.57
2023-05-15T10:26:41.752Z,20.69
2023-05-15T10:31:45.010Z,22.16
2023-05-15T10:36:52.883Z,22.32
2023-05-15T10:41:56.759Z,22.02
2023-05-15T10:47:00.658Z,21.17
2023-05-15T10:52:05.729Z,19.99
2023-05-15T10:57:10.652Z,19.34
2023-05-15T11:02:21.457Z,19.44
2023-05-15T11:07:26.181Z,19.17
2023-05-15T11:12:56.432Z,19.47
2023-05-15T11:18:04.649Z,19.65
2023-05-15T11:23:10.035Z,20.16
2023-05-15T11:28:23.232Z,20.50
2023-05-15T11:33:31.338Z,20.71
2023-05-15T11:38:40.098Z,20.25
2023-05-15T11:43:43.259Z,20.38
2023-05-15T11:48:48.421Z,21.04
2023-05-15T11:53:54.452Z,20.68
2023-05-15T11:58:58.968Z,20.85
2023-05-15T12:04:02.521Z,20.14
2023-05-15T12:09:07.806Z,19.63
2023-05-15T12:14:12.975Z,19.19
2023-05-15T12:19:16.230Z,19.90
2023-05-15T12:24:21.410Z,20.40
2023-05-15T12:29:24.757Z,20.88
2023-05-15T12:34:28.093Z,21.92
2023-05-15T12:39:32.771Z,23.05
2023-05-15T12:44:36.442Z,23.55
2023-05-15T12:49:40.028Z,21.83
2023-05-15T12:54:45.607Z,21.70
2023-05-15T12:59:48.922Z,20.73
2023-05-15T13:04:52.097Z,20.14
2023-05-15T13:10:06.672Z,19.62
2023-05-15T13:15:23.975Z,19.91
2023-05-15T13:20:28.567Z,19.65
2023-05-15T13:25:33.380Z,18.86
2023-05-15T13:30:36.640Z,19.05
2023-05-15T13:35:41.285Z,18.45
2023-05-15T13:40:46.204Z,18.61
2023-05-15T13:45:49.408Z,18.77
2023-05-15T13:50:52.762Z,19.32
2023-05-15T13:55:57.502Z,19.34
2023-05-15T14:01:01.327Z,19.40
2023-05-15T14:06:04.846Z,20.20
2023-05-15T14:11:09.672Z,20.84
2023-05-15T14:16:12.975Z,21.03
2023-05-15T14:21:16.527Z,21.11
2023-05-15T14:26:22.043Z,21.31
2023-05-15T14:31:25.678Z,21.00
2023-05-15T14:36:29.020Z,21.26
2023-05-15T14:41:33.766Z,20.77
2023-05-15T14:46:38.261Z,21.00
2023-05-15T14:51:43.274Z,20.76
2023-05-15T14:56:49.660Z,19.93
2023-05-15T15:01:53.269Z,20.34
2023-05-15T15:06:57.426Z,20.41
2023-05-15T15:12:02.868Z,20.41
2023-05-15T15:17:06.625Z,20.04
2023-05-15T15:22:10.251Z,20.33
2023-05-15T15:27:15.356Z,20.46
2023-05-15T15:32:19.184Z,20.28
2023-05-15T15:37:23.182Z,19.94
2023-05-15T15:42:29.050Z,19.32
2023-05-15T15:47:32.703Z,19.64
2023-05-15T15:52:38.456Z,19.93
2023-05-15T15:57:43.945Z,19.96
2023-05-15T16:02:47.096Z,19.73
2023-05-15T16:07:50.410Z,19.59
2023-05-15T16:12:55.101Z,19.71
2023-05-15T16:17:59.470Z,20.36
2023-05-15T16:23:03.019Z,20.36
2023-05-15T16:28:08.721Z,19.70
2023-05-15T16:33:13.255Z,19.00
2023-05-15T16:38:18.158Z,19.00
2023-05-15T16:43:22.799Z,18.81
2023-05-15T16:48:26.354Z,19.00
2023-05-15T16:53:30.131Z,19.18
2023-05-15T16:58:34.780Z,19.80
2023-05-15T17:03:38.106Z,19.19
2023-05-15T17:08:42.699Z,18.80
2023-05-15T17:13:47.128Z,18.60
2023-05-15T17:18:50.369Z,18.30
2023-05-15T17:23:54.317Z,18.15
2023-05-15T17:28:58.893Z,18.07
2023-05-15T17:34:02.139Z,17.92
2023-05-15T17:39:05.413Z,17.79
2023-05-15T17:44:10.318Z,17.56
2023-05-15T17:49:13.920Z,17.27
2023-05-15T17:54:17.396Z,17.20
2023-05-15T17:59:22.261Z,16.88
2023-05-15T18:04:25.651Z,16.81
2023-05-15T18:09:32.579Z,16.77
2023-05-15T18:14:38.780Z,16.63
2023-05-15T18:19:45.006Z,16.23
2023-05-15T18:24:48.528Z,16.21
2023-05-15T18:29:53.467Z,16.12
2023-05-15T18:34:56.727Z,15.83
2023-05-15T18:40:00.251Z,15.88
2023-05-15T18:45:05.629Z,15.69
2023-05-15T18:50:10.667Z,15.50
2023-05-15T18:55:14.872Z,15.42
2023-05-15T19:00:34.046Z,15.27
2023-05-15T19:05:43.886Z,15.13
2023-05-15T19:10:50.266Z,14.91
2023-05-15T19:15:55.715Z,14.47
2023-05-15T19:21:00.898Z,14.58
2023-05-15T19:26:04.285Z,13.88
2023-05-15T19:31:20.365Z,13.77
2023-05-15T19:36:34.321Z,13.89
2023-05-15T19:41:38.869Z,13.28
2023-05-15T19:46:45.198Z,13.41
2023-05-15T19:51:52.027Z,13.46
2023-05-15T19:56:58.603Z,13.67
2023-05-15T20:02:05.701Z,13.16
2023-05-15T20:07:08.896Z,13.07
2023-05-15T20:12:12.090Z,13.38
2023-05-15T20:17:18.770Z,13.37
2023-05-15T20:22:22.064Z,13.39
2023-05-15T20:27:25.372Z,12.96
2023-05-15T20:32:30.555Z,12.92
2023-05-15T20:37:34.894Z,13.07
2023-05-15T20:42:38.409Z,12.87
2023-05-15T20:47:43.141Z,12.75
2023-05-15T20:52:47.143Z,12.90
2023-05-15T20:57:50.957Z,12.71
2023-05-15T21:02:56.132Z,12.36
2023-05-15T21:07:59.573Z,12.68
2023-05-15T21:13:02.871Z,12.31
2023-05-15T21:18:07.886Z,12.46
2023-05-15T21:23:11.967Z,12.44
2023-05-15T21:28:15.650Z,12.38
2023-05-15T21:33:20.459Z,12.08
2023-05-15T21:38:23.738Z,12.29
2023-05-15T21:43:26.938Z,12.33
2023-05-15T21:48:31.634Z,12.34
2023-05-15T21:53:34.933Z,12.21
2023-05-15T21:58:38.198Z,11.76
2023-05-15T22:03:42.945Z,11.78
2023-05-15T22:08:46.244Z,11.90
2023-05-15T22:13:49.445Z,11.82
2023-05-15T22:18:55.123Z,11.78
2023-05-15T22:23:58.642Z,11.89
2023-05-15T22:29:01.867Z,11.69
2023-05-15T22:34:06.589Z,11.87
2023-05-15T22:39:10.131Z,11.44
2023-05-15T22:44:13.346Z,11.63
2023-05-15T22:49:23.605Z,11.52
2023-05-15T22:54:27.051Z,11.56
2023-05-15T22:59:30.333Z,11.61
2023-05-15T23:04:35.177Z,11.47
2023-05-15T23:09:38.385Z,11.42
2023-05-15T23:14:41.625Z,11.42
2023-05-15T23:19:46.635Z,11.31
2023-05-15T23:24:49.864Z,11.17
2023-05-15T23:29:53.063Z,11.11
2023-05-15T23:34:58.564Z,11.26
2023-05-15T23:40:01.976Z,11.04
2023-05-15T23:45:06.388Z,10.81
2023-05-15T23:50:11.530Z,10.93
2023-05-15T23:55:15.066Z,10.90
